createdAt,value
2022-12-06T00:02:06.701Z,-10.62
2022-12-06T00:07:10.006Z,-13.16
2022-12-06T00:12:12.194Z,-12.18
2022-12-06T00:17:14.384Z,-11.22
2022-12-06T00:22:16.547Z,-10.02
2022-12-06T00:27:18.686Z,-9.90
2022-12-06T00:32:21.353Z,-11.85
2022-12-06T00:37:23.512Z,-10.05
2022-12-06T00:42:25.643Z,-10.39
2022-12-06T00:47:27.807Z,-10.44
2022-12-06T00:52:29.939Z,-11.66
2022-12-06T00:57:32.063Z,-10.67
2022-12-06T01:02:34.219Z,-10.06
2022-12-06T01:07:36.360Z,-13.76
2022-12-06T01:12:38.721Z,-10.53
2022-12-06T01:17:40.908Z,-11.24
2022-12-06T01:22:43.034Z,-10.35
2022-12-06T01:27:45.226Z,-9.66
2022-12-06T01:32:47.504Z,-10.90
2022-12-06T01:37:49.668Z,-9.85
2022-12-06T01:42:51.802Z,-10.01
2022-12-06T01:47:53.997Z,-9.65
2022-12-06T01:53:08.791Z,-9.65
2022-12-06T01:58:13.845Z,-11.19
2022-12-06T02:03:21.947Z,-9.63
2022-12-06T02:08:25.217Z,-9.82
2022-12-06T02:13:27.700Z,-9.79
2022-12-06T02:18:45.299Z,-9.59
2022-12-06T02:24:25.116Z,-9.56
2022-12-06T02:30:08.220Z,-9.74
2022-12-06T02:35:18.294Z,-9.59
2022-12-06T02:40:23.936Z,-11.64
2022-12-06T02:45:29.620Z,-12.90
2022-12-06T02:50:39.624Z,-12.67
2022-12-06T02:55:42.323Z,-13.21
2022-12-06T03:00:56.247Z,-10.68
2022-12-06T03:06:01.439Z,-9.63
2022-12-06T03:11:04.132Z,-13.15
2022-12-06T03:16:28.678Z,-11.65
2022-12-06T03:22:00.140Z,-9.66
2022-12-06T03:27:06.900Z,-12.46
2022-12-06T03:32:10.322Z,-10.03
2022-12-06T03:37:16.071Z,-10.26
2022-12-06T03:42:19.220Z,-11.93
2022-12-06T03:47:26.834Z,-12.49
2022-12-06T03:52:30.047Z,-13.48
2022-12-06T03:57:32.389Z,-13.88
2022-12-06T04:02:34.725Z,-9.84
2022-12-06T04:07:37.224Z,-15.78
2022-12-06T04:12:57.976Z,-11.42
2022-12-06T04:18:16.552Z,-10.70
2022-12-06T04:23:19.359Z,-11.06
2022-12-06T04:28:40.145Z,-10.39
2022-12-06T04:34:00.975Z,-10.45
2022-12-06T04:39:03.363Z,-10.09
2022-12-06T04:44:06.043Z,-9.96
2022-12-06T04:49:08.355Z,-10.53
2022-12-06T04:54:10.642Z,-10.35
2022-12-06T04:59:16.051Z,-10.54
2022-12-06T05:04:18.384Z,-10.37
2022-12-06T05:09:20.677Z,-13.00
2022-12-06T05:14:23.056Z,-13.50
2022-12-06T05:19:25.338Z,-13.55
2022-12-06T05:24:27.616Z,-12.05
2022-12-06T05:29:30.003Z,-14.50
2022-12-06T05:34:32.238Z,-14.42
2022-12-06T05:39:34.455Z,-13.68
2022-12-06T05:44:37.115Z,-12.88
2022-12-06T05:49:39.437Z,-10.10
2022-12-06T05:54:41.603Z,-12.06
2022-12-06T05:59:43.800Z,-12.32
2022-12-06T06:04:46.022Z,-10.59
2022-12-06T06:09:48.212Z,-10.76
2022-12-06T06:14:50.417Z,-10.49
2022-12-06T06:19:52.681Z,-10.67
2022-12-06T06:24:54.820Z,-10.51
2022-12-06T06:29:57.732Z,-11.08
2022-12-06T06:35:00.382Z,-11.43
2022-12-06T06:40:03.060Z,-10.55
2022-12-06T06:45:06.724Z,-11.50
2022-12-06T06:50:09.401Z,-11.83
2022-12-06T06:55:11.699Z,-10.57
2022-12-06T07:00:17.002Z,-14.07
2022-12-06T07:05:19.300Z,-10.48
2022-12-06T07:10:21.611Z,-11.07
2022-12-06T07:15:23.912Z,-11.65
2022-12-06T07:20:26.235Z,-12.87
2022-12-06T07:25:28.951Z,-10.67
2022-12-06T07:30:32.412Z,-10.37
2022-12-06T07:36:10.132Z,-12.15
2022-12-06T07:41:24.786Z,-10.78
2022-12-06T07:46:27.018Z,-11.05
2022-12-06T07:51:29.325Z,-11.35
2022-12-06T07:56:34.480Z,-9.86
2022-12-06T08:01:37.032Z,-10.27
2022-12-06T08:06:39.844Z,-9.81
2022-12-06T08:11:42.146Z,-12.62
2022-12-06T08:16:44.344Z,-11.38
2022-12-06T08:21:46.560Z,-10.32
2022-12-06T08:26:49.267Z,-9.91
2022-12-06T08:31:51.645Z,-10.22
2022-12-06T08:36:54.669Z,-9.99
2022-12-06T08:41:59.553Z,-9.59
2022-12-06T08:47:02.452Z,-10.85
2022-12-06T08:52:04.911Z,-10.80
2022-12-06T08:57:07.189Z,-9.77
2022-12-06T09:02:13.040Z,-9.36
2022-12-06T09:07:16.049Z,-10.64
2022-12-06T09:12:30.012Z,-9.23
2022-12-06T09:17:32.163Z,-9.16
2022-12-06T09:22:34.419Z,-10.39
2022-12-06T09:27:36.860Z,-11.74
2022-12-06T09:32:39.046Z,-9.16
2022-12-06T09:37:41.204Z,-9.10
2022-12-06T09:43:28.032Z,-8.77
2022-12-06T09:48:48.664Z,-10.08
2022-12-06T09:53:58.439Z,-8.65
2022-12-06T09:59:00.557Z,-8.57
2022-12-06T10:04:58.809Z,-8.48
2022-12-06T10:10:32.110Z,-8.41
2022-12-06T10:15:38.422Z,-8.34
2022-12-06T10:21:08.470Z,-8.26
2022-12-06T10:26:17.536Z,-8.20
2022-12-06T10:31:19.827Z,-8.12
2022-12-06T10:36:45.312Z,-8.37
2022-12-06T10:42:02.227Z,-7.94
2022-12-06T10:47:15.414Z,-7.90
2022-12-06T10:52:44.670Z,-7.84
2022-12-06T10:58:12.675Z,-7.81
2022-12-06T11:03:43.699Z,-8.08
2022-12-06T11:08:56.355Z,-8.55
2022-12-06T11:14:09.311Z,-7.66
2022-12-06T11:19:27.698Z,-7.62
2022-12-06T11:24:35.281Z,-8.39
2022-12-06T11:29:37.679Z,-8.04
2022-12-06T11:34:58.516Z,-8.53
2022-12-06T11:40:09.263Z,-8.10
2022-12-06T11:45:46.029Z,-7.49
2022-12-06T11:50:49.804Z,-7.94
2022-12-06T11:55:54.172Z,-7.44
2022-12-06T12:01:06.165Z,-8.55
2022-12-06T12:06:33.828Z,-7.38
2022-12-06T12:11:38.094Z,-7.40
2022-12-06T12:16:46.816Z,-7.40
2022-12-06T12:21:54.029Z,-7.40
2022-12-06T12:26:56.638Z,-8.56
2022-12-06T12:32:02.370Z,-7.83
2022-12-06T12:37:05.204Z,-8.12
2022-12-06T12:42:28.516Z,-7.74
2022-12-06T12:47:32.116Z,-8.34
2022-12-06T12:52:39.776Z,-8.46
2022-12-06T12:57:44.360Z,-7.84
2022-12-06T13:02:51.576Z,-7.88
2022-12-06T13:07:56.204Z,-8.84
2022-12-06T13:13:04.771Z,-8.46
2022-12-06T13:18:27.683Z,-9.26
2022-12-06T13:23:35.266Z,-8.43
2022-12-06T13:28:41.597Z,-8.00
2022-12-06T13:33:58.399Z,-7.43
2022-12-06T13:39:46.359Z,-7.42
2022-12-06T13:44:48.462Z,-7.44
2022-12-06T13:49:50.670Z,-7.79
2022-12-06T13:54:52.918Z,-8.69
2022-12-06T13:59:55.297Z,-7.87
2022-12-06T14:04:57.743Z,-8.84
2022-12-06T14:10:12.850Z,-7.74
2022-12-06T14:15:19.893Z,-7.37
2022-12-06T14:20:24.931Z,-7.69
2022-12-06T14:25:32.100Z,-8.19
2022-12-06T14:30:34.559Z,-7.32
2022-12-06T14:35:37.037Z,-7.80
2022-12-06T14:41:00.378Z,-7.57
2022-12-06T14:46:05.500Z,-7.59
2022-12-06T14:51:28.118Z,-7.20
2022-12-06T14:56:34.615Z,-7.71
2022-12-06T15:01:47.022Z,-8.14
2022-12-06T15:06:55.171Z,-7.19
2022-12-06T15:12:37.863Z,-7.16
2022-12-06T15:17:40.186Z,-7.80
2022-12-06T15:22:46.571Z,-7.50
2022-12-06T15:27:48.747Z,-7.49
2022-12-06T15:32:50.935Z,-7.16
2022-12-06T15:37:53.215Z,-7.13
2022-12-06T15:43:00.597Z,-10.17
2022-12-06T15:48:04.725Z,-8.23
2022-12-06T15:53:24.753Z,-7.47
2022-12-06T15:58:27.165Z,-7.78
2022-12-06T16:03:29.462Z,-7.41
2022-12-06T16:08:34.692Z,-8.07
2022-12-06T16:13:36.885Z,-7.53
2022-12-06T16:18:39.331Z,-7.02
2022-12-06T16:24:15.363Z,-8.03
2022-12-06T16:29:23.865Z,-6.97
2022-12-06T16:34:27.964Z,-7.53
2022-12-06T16:39:31.671Z,-6.97
2022-12-06T16:44:33.887Z,-7.34
2022-12-06T16:49:48.803Z,-8.05
2022-12-06T16:54:51.586Z,-7.09
2022-12-06T16:59:55.406Z,-7.67
2022-12-06T17:05:01.379Z,-6.93
2022-12-06T17:10:07.539Z,-7.36
2022-12-06T17:15:15.100Z,-7.17
2022-12-06T17:20:18.659Z,-8.08
2022-12-06T17:25:20.955Z,-7.73
2022-12-06T17:30:23.640Z,-7.90
2022-12-06T17:35:26.239Z,-7.21
2022-12-06T17:40:28.432Z,-7.14
2022-12-06T17:45:30.707Z,-8.48
2022-12-06T17:50:36.134Z,-7.62
2022-12-06T17:55:38.419Z,-7.73
2022-12-06T18:00:40.636Z,-6.87
2022-12-06T18:05:45.168Z,-6.91
2022-12-06T18:10:47.382Z,-7.64
2022-12-06T18:15:52.587Z,-7.63
2022-12-06T18:20:54.957Z,-6.84
2022-12-06T18:26:01.635Z,-7.86
2022-12-06T18:31:04.222Z,-11.51
2022-12-06T18:36:07.155Z,-7.02
2022-12-06T18:41:20.800Z,-7.20
2022-12-06T18:46:24.289Z,-7.67
2022-12-06T18:51:30.143Z,-7.27
2022-12-06T18:56:33.666Z,-7.24
2022-12-06T19:01:39.913Z,-7.78
2022-12-06T19:06:47.420Z,-6.95
2022-12-06T19:11:49.874Z,-6.96
2022-12-06T19:16:52.852Z,-7.36
2022-12-06T19:21:55.940Z,-7.11
2022-12-06T19:26:58.545Z,-7.01
2022-12-06T19:32:02.679Z,-7.67
2022-12-06T19:37:04.966Z,-7.35
2022-12-06T19:42:25.542Z,-7.03
2022-12-06T19:47:27.805Z,-8.97
2022-12-06T19:52:32.288Z,-7.21
2022-12-06T19:57:34.616Z,-7.09
2022-12-06T20:02:37.087Z,-7.66
2022-12-06T20:07:39.412Z,-7.32
2022-12-06T20:12:41.613Z,-8.01
2022-12-06T20:17:43.869Z,-7.12
2022-12-06T20:22:46.091Z,-7.14
2022-12-06T20:27:51.305Z,-7.50
2022-12-06T20:32:53.655Z,-7.34
2022-12-06T20:37:55.985Z,-7.18
2022-12-06T20:42:58.187Z,-7.90
2022-12-06T20:48:00.371Z,-7.81
2022-12-06T20:53:02.824Z,-7.89
2022-12-06T20:58:04.997Z,-7.35
2022-12-06T21:03:07.295Z,-7.70
2022-12-06T21:08:13.809Z,-7.72
2022-12-06T21:13:16.010Z,-8.29
2022-12-06T21:18:19.901Z,-7.56
2022-12-06T21:23:22.552Z,-7.44
2022-12-06T21:28:24.775Z,-7.93
2022-12-06T21:33:27.021Z,-7.31
2022-12-06T21:38:32.955Z,-8.03
2022-12-06T21:43:36.129Z,-8.41
2022-12-06T21:48:38.848Z,-8.00
2022-12-06T21:53:41.222Z,-7.39
2022-12-06T21:58:43.372Z,-8.04
2022-12-06T22:03:49.742Z,-7.41
2022-12-06T22:09:00.617Z,-8.37
2022-12-06T22:14:05.086Z,-7.43
2022-12-06T22:19:07.391Z,-8.12
2022-12-06T22:24:09.604Z,-7.50
2022-12-06T22:29:11.821Z,-7.51
2022-12-06T22:34:14.073Z,-7.53
2022-12-06T22:39:16.357Z,-7.88
2022-12-06T22:44:19.737Z,-7.57
2022-12-06T22:49:21.855Z,-8.34
2022-12-06T22:54:24.177Z,-7.94
2022-12-06T22:59:26.393Z,-8.20
2022-12-06T23:04:28.609Z,-8.90
2022-12-06T23:09:30.911Z,-8.02
2022-12-06T23:14:33.128Z,-8.13
2022-12-06T23:19:35.252Z,-8.68
2022-12-06T23:24:37.500Z,-7.76
2022-12-06T23:29:39.752Z,-8.57
2022-12-06T23:34:41.969Z,-8.26
2022-12-06T23:39:44.134Z,-8.29
2022-12-06T23:44:46.294Z,-8.32
2022-12-06T23:49:48.587Z,-8.68
2022-12-06T23:54:53.727Z,-7.82
2022-12-06T23:59:55.898Z,-8.24
